createdAt,value
2022-09-23T00:01:34.807Z,2.83
2022-09-23T00:04:03.121Z,2.70
2022-09-23T00:06:31.213Z,2.60
2022-09-23T00:14:33.663Z,2.60
2022-09-23T00:17:03.105Z,3.10
2022-09-23T00:19:31.199Z,2.77
2022-09-23T00:21:59.333Z,3.13
2022-09-23T00:24:32.221Z,3.10
2022-09-23T00:27:00.335Z,3.10
2022-09-23T00:29:28.413Z,3.20
2022-09-23T00:31:56.462Z,3.13
2022-09-23T00:34:28.089Z,2.90
2022-09-23T00:36:56.885Z,3.00
2022-09-23T00:39:26.023Z,2.80
2022-09-23T00:41:54.129Z,2.87
2022-09-23T00:44:48.180Z,2.60
2022-09-23T00:47:24.703Z,2.70
2022-09-23T00:50:03.604Z,2.77
2022-09-23T00:52:32.653Z,2.60
2022-09-23T00:55:07.727Z,2.53
2022-09-23T00:57:37.304Z,3.00
2022-09-23T01:00:07.057Z,2.43
2022-09-23T01:02:37.718Z,2.40
2022-09-23T01:05:09.195Z,2.50
2022-09-23T01:07:40.309Z,2.60
2022-09-23T01:10:10.778Z,2.70
2022-09-23T01:12:59.011Z,2.60
2022-09-23T01:15:34.088Z,2.57
2022-09-23T01:18:11.309Z,2.40
2022-09-23T01:21:04.608Z,2.60
2022-09-23T01:24:12.395Z,2.50
2022-09-23T01:27:10.266Z,2.77
2022-09-23T01:30:26.515Z,2.70
2022-09-23T01:33:11.181Z,2.63
2022-09-23T01:35:56.360Z,2.70
2022-09-23T01:38:40.476Z,2.77
2022-09-23T01:41:16.966Z,2.63
2022-09-23T01:43:53.842Z,2.57
2022-09-23T01:46:31.058Z,2.40
2022-09-23T01:49:08.272Z,2.70
2022-09-23T01:51:39.397Z,2.53
2022-09-23T01:54:16.922Z,2.40
2022-09-23T01:56:52.940Z,2.53
2022-09-23T01:59:26.348Z,2.50
2022-09-23T02:01:59.404Z,2.63
2022-09-23T02:04:36.691Z,2.67
2022-09-23T02:07:15.097Z,2.53
2022-09-23T02:09:47.193Z,2.80
2022-09-23T02:12:22.193Z,3.00
2022-09-23T02:14:54.410Z,2.20
2022-09-23T02:17:29.519Z,2.40
2022-09-23T02:20:05.560Z,2.63
2022-09-23T02:22:43.078Z,3.17
2022-09-23T02:25:13.061Z,2.60
2022-09-23T02:27:48.373Z,2.33
2022-09-23T02:30:20.941Z,2.53
2022-09-23T02:32:53.943Z,2.20
2022-09-23T02:35:36.012Z,2.87
2022-09-23T02:38:18.558Z,2.40
2022-09-23T02:40:54.273Z,2.60
2022-09-23T02:43:35.494Z,2.73
2022-09-23T02:46:04.784Z,2.70
2022-09-23T02:48:40.704Z,2.50
2022-09-23T02:51:10.735Z,2.40
2022-09-23T02:53:39.225Z,2.50
2022-09-23T02:56:19.559Z,2.70
2022-09-23T02:58:48.143Z,2.30
2022-09-23T03:01:26.657Z,2.93
2022-09-23T03:04:06.765Z,2.37
2022-09-23T03:06:49.384Z,2.90
2022-09-23T03:09:23.264Z,2.40
2022-09-23T03:12:06.517Z,2.60
2022-09-23T03:14:44.559Z,2.67
2022-09-23T03:17:20.088Z,2.50
2022-09-23T03:19:52.081Z,2.67
2022-09-23T03:22:28.365Z,2.90
2022-09-23T03:25:00.807Z,2.80
2022-09-23T03:27:32.416Z,2.60
2022-09-23T03:30:03.547Z,2.83
2022-09-23T03:32:33.962Z,2.57
2022-09-23T03:35:10.131Z,2.40
2022-09-23T03:37:43.226Z,2.60
2022-09-23T03:40:19.325Z,2.33
2022-09-23T03:42:48.869Z,2.70
2022-09-23T03:45:21.064Z,3.03
2022-09-23T03:47:49.149Z,2.63
2022-09-23T03:50:18.351Z,2.63
2022-09-23T03:52:50.525Z,2.73
2022-09-23T03:55:19.528Z,2.53
2022-09-23T03:57:50.696Z,2.40
2022-09-23T04:00:18.858Z,2.50
2022-09-23T04:02:46.919Z,2.40
2022-09-23T04:05:18.345Z,2.53
2022-09-23T04:07:48.463Z,2.43
2022-09-23T04:10:19.951Z,2.80
2022-09-23T04:12:47.989Z,2.40
2022-09-23T04:15:16.111Z,2.40
2022-09-23T04:17:46.589Z,2.40
2022-09-23T04:20:15.321Z,2.37
2022-09-23T04:22:43.332Z,2.70
2022-09-23T04:25:15.702Z,2.77
2022-09-23T04:27:43.734Z,2.47
2022-09-23T04:30:15.206Z,2.60
2022-09-23T04:32:43.252Z,2.60
2022-09-23T04:35:14.057Z,2.60
2022-09-23T04:37:42.398Z,2.60
2022-09-23T04:40:11.267Z,2.60
2022-09-23T04:42:42.949Z,2.20
2022-09-23T04:45:11.702Z,2.53
2022-09-23T04:47:39.750Z,2.70
2022-09-23T04:50:11.221Z,2.60
2022-09-23T04:52:39.273Z,2.20
2022-09-23T04:55:11.229Z,2.40
2022-09-23T04:57:41.971Z,2.70
2022-09-23T05:00:15.692Z,2.40
2022-09-23T05:02:44.889Z,2.20
2022-09-23T05:05:21.204Z,2.67
2022-09-23T05:07:49.291Z,2.40
2022-09-23T05:10:20.162Z,2.57
2022-09-23T05:12:53.550Z,2.83
2022-09-23T05:15:27.659Z,2.77
2022-09-23T05:17:59.044Z,2.43
2022-09-23T05:20:29.799Z,2.97
2022-09-23T05:22:58.557Z,2.60
2022-09-23T05:25:29.424Z,2.60
2022-09-23T05:27:58.822Z,2.63
2022-09-23T05:30:26.944Z,2.73
2022-09-23T05:32:55.005Z,2.60
2022-09-23T05:35:25.904Z,2.20
2022-09-23T05:37:53.939Z,3.07
2022-09-23T05:40:22.031Z,2.70
2022-09-23T05:42:53.983Z,2.43
2022-09-23T05:45:26.844Z,2.60
2022-09-23T05:47:57.352Z,2.60
2022-09-23T05:50:25.426Z,2.70
2022-09-23T05:52:53.497Z,2.40
2022-09-23T05:55:21.651Z,2.60
2022-09-23T05:57:52.743Z,2.70
2022-09-23T06:00:21.275Z,2.83
2022-09-23T06:02:50.759Z,2.80
2022-09-23T06:05:18.806Z,2.57
2022-09-23T06:07:46.890Z,2.43
2022-09-23T06:10:17.845Z,2.93
2022-09-23T06:12:45.874Z,2.50
2022-09-23T06:15:16.964Z,2.60
2022-09-23T06:17:45.014Z,2.70
2022-09-23T06:20:16.860Z,2.70
2022-09-23T06:22:44.944Z,2.73
2022-09-23T06:25:13.095Z,2.80
2022-09-23T06:27:44.175Z,2.97
2022-09-23T06:30:13.566Z,2.70
2022-09-23T06:32:45.746Z,2.53
2022-09-23T06:35:24.614Z,3.10
2022-09-23T06:37:55.701Z,3.07
2022-09-23T06:40:23.999Z,2.50
2022-09-23T06:42:59.448Z,2.67
2022-09-23T06:45:27.769Z,2.97
2022-09-23T06:47:57.764Z,2.80
2022-09-23T06:50:30.966Z,2.90
2022-09-23T06:52:59.395Z,2.83
2022-09-23T06:55:31.019Z,3.00
2022-09-23T06:57:59.776Z,2.70
2022-09-23T07:00:29.154Z,2.97
2022-09-23T07:02:57.299Z,3.00
2022-09-23T07:05:25.820Z,2.93
2022-09-23T07:07:55.191Z,2.80
2022-09-23T07:10:23.273Z,3.03
2022-09-23T07:12:51.326Z,2.70
2022-09-23T07:15:19.377Z,3.00
2022-09-23T07:17:49.976Z,2.80
2022-09-23T07:20:18.730Z,2.57
2022-09-23T07:22:52.162Z,2.50
2022-09-23T07:25:22.969Z,2.50
2022-09-23T07:27:51.041Z,2.57
2022-09-23T07:30:24.584Z,2.90
2022-09-23T07:32:53.702Z,2.93
2022-09-23T07:35:21.771Z,2.93
2022-09-23T07:37:53.648Z,2.93
2022-09-23T07:40:23.460Z,2.93
2022-09-23T07:42:51.529Z,2.93
2022-09-23T07:45:23.549Z,2.77
2022-09-23T07:47:51.627Z,2.97
2022-09-23T07:50:19.927Z,3.00
2022-09-23T07:52:48.005Z,2.77
2022-09-23T07:55:20.253Z,2.97
2022-09-23T07:57:52.594Z,2.90
2022-09-23T08:00:21.235Z,2.70
2022-09-23T08:02:52.877Z,2.77
2022-09-23T08:05:22.715Z,2.83
2022-09-23T08:07:50.811Z,2.67
2022-09-23T08:10:21.452Z,2.80
2022-09-23T08:12:50.814Z,2.47
2022-09-23T08:15:18.868Z,2.90
2022-09-23T08:17:50.276Z,2.73
2022-09-23T08:20:32.360Z,2.73
2022-09-23T08:23:00.496Z,2.47
2022-09-23T08:25:30.429Z,2.67
2022-09-23T08:28:01.819Z,2.47
2022-09-23T08:30:29.889Z,2.80
2022-09-23T08:32:57.897Z,2.63
2022-09-23T08:35:26.022Z,2.33
2022-09-23T08:37:54.055Z,2.50
2022-09-23T08:40:22.339Z,2.50
2022-09-23T08:42:53.301Z,2.33
2022-09-23T08:45:26.952Z,2.63
2022-09-23T08:48:01.870Z,2.30
2022-09-23T08:50:37.243Z,2.50
2022-09-23T08:53:10.111Z,2.30
2022-09-23T08:55:46.778Z,2.50
2022-09-23T08:58:31.093Z,2.40
2022-09-23T09:01:14.029Z,2.33
2022-09-23T09:03:51.879Z,2.20
2022-09-23T09:06:22.442Z,2.63
2022-09-23T09:08:57.183Z,2.50
2022-09-23T09:11:35.598Z,2.50
2022-09-23T09:14:19.945Z,2.70
2022-09-23T09:17:00.112Z,2.60
2022-09-23T09:19:56.818Z,2.30
2022-09-23T09:22:42.994Z,2.60
2022-09-23T09:25:34.124Z,2.50
2022-09-23T09:28:04.404Z,2.40
2022-09-23T09:30:34.847Z,2.53
2022-09-23T09:33:06.780Z,2.30
2022-09-23T09:35:43.831Z,2.67
2022-09-23T09:38:12.681Z,2.90
2022-09-23T09:40:48.726Z,2.73
2022-09-23T09:43:23.495Z,2.97
2022-09-23T09:46:04.122Z,3.03
2022-09-23T09:48:39.100Z,2.57
2022-09-23T09:51:22.834Z,2.30
2022-09-23T09:53:52.831Z,2.50
2022-09-23T09:56:27.725Z,2.70
2022-09-23T09:59:01.272Z,2.47
2022-09-23T10:01:34.024Z,2.27
2022-09-23T10:04:06.247Z,2.60
2022-09-23T10:06:38.468Z,2.30
2022-09-23T10:09:21.652Z,2.57
2022-09-23T10:12:15.586Z,2.10
2022-09-23T10:14:43.912Z,2.50
2022-09-23T10:17:17.967Z,2.40
2022-09-23T10:19:50.238Z,1.93
2022-09-23T10:22:26.288Z,2.30
2022-09-23T10:24:56.027Z,2.10
2022-09-23T10:27:31.465Z,2.07
2022-09-23T10:30:01.633Z,2.00
2022-09-23T10:32:32.390Z,2.40
2022-09-23T10:35:05.034Z,1.80
2022-09-23T10:37:39.106Z,1.90
2022-09-23T10:40:40.947Z,2.10
2022-09-23T10:43:47.034Z,1.87
2022-09-23T10:46:38.267Z,2.10
2022-09-23T10:49:35.653Z,2.00
2022-09-23T10:52:19.418Z,2.50
2022-09-23T10:55:02.542Z,2.17
2022-09-23T10:57:44.847Z,1.67
2022-09-23T11:00:23.123Z,2.23
2022-09-23T11:03:19.621Z,2.03
2022-09-23T11:06:00.878Z,2.17
2022-09-23T11:09:07.037Z,2.20
2022-09-23T11:11:49.230Z,1.90
2022-09-23T11:14:42.852Z,1.90
2022-09-23T11:17:28.891Z,2.20
2022-09-23T11:20:17.908Z,2.00
2022-09-23T11:23:05.096Z,2.10
2022-09-23T11:25:47.250Z,1.70
2022-09-23T11:28:36.889Z,1.87
2022-09-23T11:31:14.634Z,1.87
2022-09-23T11:33:55.515Z,1.67
2022-09-23T11:36:35.345Z,2.23
2022-09-23T11:39:13.873Z,1.87
2022-09-23T11:41:45.265Z,2.17
2022-09-23T11:44:19.973Z,1.87
2022-09-23T11:46:54.283Z,1.90
2022-09-23T11:49:30.974Z,1.93
2022-09-23T11:52:07.185Z,1.80
2022-09-23T11:54:41.162Z,1.80
2022-09-23T11:57:21.986Z,1.83
2022-09-23T11:59:58.346Z,2.07
2022-09-23T12:02:35.858Z,1.60
2022-09-23T12:05:10.381Z,1.97
2022-09-23T12:07:53.392Z,1.80
2022-09-23T12:10:23.164Z,2.00
2022-09-23T12:13:01.191Z,1.77
2022-09-23T12:15:47.876Z,1.70
2022-09-23T12:18:49.390Z,1.80
2022-09-23T12:21:52.015Z,1.90
2022-09-23T12:24:47.371Z,1.70
2022-09-23T12:27:25.010Z,1.57
2022-09-23T12:30:02.542Z,1.70
2022-09-23T12:32:32.165Z,1.93
2022-09-23T12:35:03.598Z,2.07
2022-09-23T12:37:35.957Z,1.80
2022-09-23T12:40:10.541Z,1.60
2022-09-23T12:42:47.867Z,1.50
2022-09-23T12:45:37.286Z,1.83
2022-09-23T12:48:11.086Z,1.57
2022-09-23T12:51:07.694Z,1.60
2022-09-23T12:54:15.305Z,1.70
2022-09-23T12:57:06.272Z,1.50
2022-09-23T12:59:56.726Z,1.43
2022-09-23T13:02:33.598Z,1.60
2022-09-23T13:05:34.862Z,1.43
2022-09-23T13:08:09.948Z,1.70
2022-09-23T13:10:48.287Z,1.60
2022-09-23T13:13:23.501Z,1.47
2022-09-23T13:15:55.174Z,1.50
2022-09-23T13:18:54.777Z,1.53
2022-09-23T13:22:11.393Z,1.60
2022-09-23T13:24:53.274Z,1.50
2022-09-23T13:27:34.666Z,1.30
2022-09-23T13:30:07.749Z,1.40
2022-09-23T13:32:41.777Z,1.40
2022-09-23T13:35:23.912Z,1.33
2022-09-23T13:37:52.684Z,1.07
2022-09-23T13:40:24.449Z,1.30
2022-09-23T13:42:58.830Z,1.50
2022-09-23T13:45:30.955Z,1.30
2022-09-23T13:48:05.957Z,1.50
2022-09-23T13:50:41.234Z,1.40
2022-09-23T13:53:12.217Z,1.20
2022-09-23T13:55:43.790Z,1.50
2022-09-23T13:58:19.722Z,1.40
2022-09-23T14:00:48.497Z,1.50
2022-09-23T14:03:36.263Z,1.37
2022-09-23T14:06:14.674Z,1.60
2022-09-23T14:08:46.914Z,1.50
2022-09-23T14:11:19.031Z,1.30
2022-09-23T14:13:49.907Z,1.60
2022-09-23T14:16:19.657Z,1.60
2022-09-23T14:18:53.195Z,1.63
2022-09-23T14:21:35.216Z,1.53
2022-09-23T14:24:32.561Z,1.40
2022-09-23T14:27:04.672Z,1.20
2022-09-23T14:29:35.439Z,1.40
2022-09-23T14:32:06.621Z,1.37
2022-09-23T14:34:46.660Z,1.23
2022-09-23T14:37:46.181Z,1.50
2022-09-23T14:40:17.188Z,1.47
2022-09-23T14:42:51.059Z,1.40
2022-09-23T14:45:25.361Z,1.43
2022-09-23T14:47:58.861Z,1.53
2022-09-23T14:50:47.158Z,1.50
2022-09-23T14:53:37.834Z,1.20
2022-09-23T14:56:18.146Z,1.30
2022-09-23T14:58:53.084Z,1.40
2022-09-23T15:01:37.326Z,1.60
2022-09-23T15:04:17.439Z,1.40
2022-09-23T15:06:51.256Z,1.33
2022-09-23T15:09:24.745Z,1.20
2022-09-23T15:11:54.985Z,1.50
2022-09-23T15:14:37.659Z,1.30
2022-09-23T15:17:18.998Z,1.20
2022-09-23T15:19:56.594Z,1.20
2022-09-23T15:22:25.064Z,1.30
2022-09-23T15:24:55.181Z,1.40
2022-09-23T15:27:32.485Z,1.13
2022-09-23T15:30:16.218Z,1.23
2022-09-23T15:32:45.085Z,1.40
2022-09-23T15:35:15.868Z,1.27
2022-09-23T15:37:44.432Z,1.30
2022-09-23T15:40:20.853Z,1.13
2022-09-23T15:42:51.584Z,1.10
2022-09-23T15:45:29.916Z,1.20
2022-09-23T15:48:06.891Z,1.30
2022-09-23T15:50:36.061Z,1.30
2022-09-23T15:53:08.550Z,1.70
2022-09-23T15:55:37.993Z,1.60
2022-09-23T15:58:06.040Z,1.53
2022-09-23T16:00:36.430Z,1.50
2022-09-23T16:03:05.129Z,1.30
2022-09-23T16:05:38.833Z,1.30
2022-09-23T16:08:09.412Z,1.33
2022-09-23T16:10:42.805Z,1.40
2022-09-23T16:13:13.233Z,1.40
2022-09-23T16:15:41.614Z,1.20
2022-09-23T16:18:11.402Z,1.10
2022-09-23T16:20:44.715Z,1.20
2022-09-23T16:23:34.493Z,1.33
2022-09-23T16:26:13.915Z,1.40
2022-09-23T16:28:42.579Z,1.40
2022-09-23T16:31:16.986Z,1.60
2022-09-23T16:33:45.745Z,1.50
2022-09-23T16:36:18.596Z,1.27
2022-09-23T16:38:49.065Z,1.57
2022-09-23T16:41:18.541Z,1.50
2022-09-23T16:43:47.932Z,1.20
2022-09-23T16:46:18.171Z,1.40
2022-09-23T16:48:52.399Z,1.50
2022-09-23T16:51:23.818Z,1.30
2022-09-23T16:54:00.125Z,1.50
2022-09-23T16:56:30.941Z,1.40
2022-09-23T16:58:59.019Z,1.30
2022-09-23T17:01:46.137Z,1.43
2022-09-23T17:04:15.737Z,1.60
2022-09-23T17:06:44.675Z,1.60
2022-09-23T17:09:12.906Z,1.60
2022-09-23T17:11:47.932Z,1.40
2022-09-23T17:14:16.482Z,1.43
2022-09-23T17:16:45.720Z,1.70
2022-09-23T17:19:16.221Z,1.47
2022-09-23T17:21:44.750Z,1.50
2022-09-23T17:24:12.962Z,1.30
2022-09-23T17:26:52.012Z,1.60
2022-09-23T17:29:20.869Z,1.90
2022-09-23T17:31:48.984Z,1.67
2022-09-23T17:34:19.191Z,1.57
2022-09-23T17:36:47.317Z,1.80
2022-09-23T17:39:15.357Z,1.90
2022-09-23T17:41:46.460Z,2.10
2022-09-23T17:44:17.655Z,2.00
2022-09-23T17:46:45.735Z,2.03
2022-09-23T17:49:13.770Z,1.80
2022-09-23T17:51:42.207Z,1.70
2022-09-23T17:54:11.051Z,2.00
2022-09-23T17:56:39.215Z,1.87
2022-09-23T17:59:13.441Z,1.80
2022-09-23T18:01:41.661Z,2.20
2022-09-23T18:04:13.192Z,2.07
2022-09-23T18:06:41.269Z,1.90
2022-09-23T18:09:12.826Z,2.03
2022-09-23T18:11:42.917Z,2.00
2022-09-23T18:14:23.475Z,2.17
2022-09-23T18:16:53.594Z,2.20
2022-09-23T18:19:27.846Z,1.90
2022-09-23T18:21:57.346Z,2.10
2022-09-23T18:24:34.358Z,2.40
2022-09-23T18:27:04.860Z,1.97
2022-09-23T18:29:34.482Z,1.80
2022-09-23T18:32:03.257Z,2.40
2022-09-23T18:34:31.581Z,2.37
2022-09-23T18:36:59.693Z,2.50
2022-09-23T18:39:27.780Z,2.40
2022-09-23T18:41:55.914Z,2.30
2022-09-23T18:44:24.375Z,2.30
2022-09-23T18:46:53.746Z,2.30
2022-09-23T18:49:44.656Z,2.60
2022-09-23T18:52:12.732Z,2.40
2022-09-23T18:54:40.762Z,2.50
2022-09-23T18:57:09.910Z,2.10
2022-09-23T18:59:41.010Z,2.70
2022-09-23T19:02:11.297Z,2.60
2022-09-23T19:04:39.473Z,2.80
2022-09-23T19:07:09.792Z,3.13
2022-09-23T19:09:37.879Z,2.90
2022-09-23T19:12:06.383Z,3.30
2022-09-23T19:14:34.466Z,3.50
2022-09-23T19:17:05.256Z,2.80
2022-09-23T19:19:34.634Z,3.00
2022-09-23T19:22:08.698Z,2.93
2022-09-23T19:24:36.807Z,3.20
2022-09-23T19:27:07.350Z,3.20
2022-09-23T19:29:35.744Z,3.17
2022-09-23T19:32:06.575Z,3.33
2022-09-23T19:34:37.694Z,3.70
2022-09-23T19:37:06.045Z,3.77
2022-09-23T19:39:37.474Z,3.60
2022-09-23T19:42:05.629Z,3.83
2022-09-23T19:44:34.265Z,4.00
2022-09-23T19:47:02.811Z,4.33
2022-09-23T19:49:31.243Z,3.83
2022-09-23T19:52:03.391Z,3.43
2022-09-23T19:54:31.462Z,4.07
2022-09-23T19:56:59.563Z,3.90
2022-09-23T19:59:28.175Z,3.97
2022-09-23T20:01:56.382Z,4.00
2022-09-23T20:04:24.626Z,4.37
2022-09-23T20:06:52.920Z,4.27
2022-09-23T20:09:22.591Z,4.10
2022-09-23T20:11:53.724Z,4.30
2022-09-23T20:14:22.704Z,4.00
2022-09-23T20:16:53.954Z,4.27
2022-09-23T20:19:22.296Z,4.30
2022-09-23T20:22:10.914Z,4.00
2022-09-23T20:24:40.318Z,3.87
2022-09-23T20:27:10.463Z,4.20
2022-09-23T20:29:39.015Z,4.23
2022-09-23T20:32:11.240Z,4.20
2022-09-23T20:34:42.734Z,4.47
2022-09-23T20:37:16.819Z,4.50
2022-09-23T20:39:47.256Z,4.27
2022-09-23T20:42:19.941Z,4.23
2022-09-23T20:44:48.629Z,4.43
2022-09-23T20:47:18.594Z,4.80
2022-09-23T20:49:48.970Z,4.80
2022-09-23T20:52:20.279Z,4.33
2022-09-23T20:54:53.009Z,4.60
2022-09-23T20:57:21.380Z,4.77
2022-09-23T20:59:51.859Z,5.23
2022-09-23T21:02:20.047Z,5.17
2022-09-23T21:04:48.156Z,4.70
2022-09-23T21:07:18.810Z,4.77
2022-09-23T21:09:46.885Z,4.90
2022-09-23T21:12:16.286Z,5.23
2022-09-23T21:14:45.323Z,5.13
2022-09-23T21:17:13.431Z,4.87
2022-09-23T21:19:44.410Z,5.03
2022-09-23T21:22:12.439Z,4.77
2022-09-23T21:25:16.098Z,4.77
2022-09-23T21:27:32.911Z,4.37
2022-09-23T21:30:01.059Z,4.77
2022-09-23T21:32:29.044Z,4.80
2022-09-23T21:34:59.251Z,4.53
2022-09-23T21:37:27.291Z,4.50
2022-09-23T21:40:09.274Z,4.50
2022-09-23T21:42:38.693Z,4.67
2022-09-23T21:45:07.531Z,4.33
2022-09-23T21:47:35.641Z,4.30
2022-09-23T21:50:04.156Z,4.63
2022-09-23T21:52:32.202Z,4.90
2022-09-23T21:55:00.263Z,4.60
2022-09-23T21:57:31.073Z,5.17
2022-09-23T22:00:03.116Z,5.20
2022-09-23T22:02:31.145Z,5.03
2022-09-23T22:04:59.198Z,5.30
2022-09-23T22:07:27.267Z,5.30
2022-09-23T22:09:55.350Z,4.83
2022-09-23T22:12:24.066Z,5.17
2022-09-23T22:14:52.410Z,5.07
2022-09-23T22:17:24.598Z,4.63
2022-09-23T22:19:52.575Z,4.70
2022-09-23T22:22:20.653Z,5.27
2022-09-23T22:24:49.072Z,5.20
2022-09-23T22:27:20.991Z,4.83
2022-09-23T22:30:06.884Z,5.00
2022-09-23T22:32:46.137Z,5.47
2022-09-23T22:35:17.573Z,5.30
2022-09-23T22:37:48.740Z,6.10
2022-09-23T22:40:17.245Z,5.93
2022-09-23T22:42:45.829Z,5.77
2022-09-23T22:45:14.526Z,5.57
2022-09-23T22:47:45.743Z,5.53
2022-09-23T22:50:17.227Z,5.80
2022-09-23T22:52:45.319Z,5.20
2022-09-23T22:55:16.030Z,5.27
2022-09-23T22:57:44.339Z,5.10
2022-09-23T23:00:13.495Z,5.20
2022-09-23T23:02:43.032Z,4.80
2022-09-23T23:05:11.445Z,5.13
2022-09-23T23:07:42.635Z,5.20
2022-09-23T23:10:11.050Z,5.10
2022-09-23T23:12:39.528Z,5.10
2022-09-23T23:15:09.280Z,5.97
2022-09-23T23:17:40.559Z,5.07
2022-09-23T23:20:11.619Z,5.80
2022-09-23T23:22:42.890Z,5.83
2022-09-23T23:25:11.256Z,5.87
2022-09-23T23:27:42.393Z,5.63
2022-09-23T23:30:11.365Z,5.87
2022-09-23T23:32:43.514Z,6.43
2022-09-23T23:35:13.205Z,5.97
2022-09-23T23:37:41.204Z,5.70
2022-09-23T23:40:10.332Z,6.53
2022-09-23T23:42:38.396Z,5.97
2022-09-23T23:45:09.932Z,6.30
2022-09-23T23:47:38.685Z,5.80
2022-09-23T23:50:09.103Z,5.97
2022-09-23T23:52:38.462Z,5.97
2022-09-23T23:55:07.194Z,6.40
2022-09-23T23:57:35.227Z,6.77
